aviador You're here:

KGLD Decoded Metar

GOODLAND in KS, USA
Report Time2018-07-18 10:43:00
UTC Time2018-07-18 10:58:38
Flight Rules lifr LIFR
Wind170° at 10 kt
W.Decomp.*RWY 17: 9.9 kt HW 1.6 kt LCW
RWY 12: 7.5 kt HW 6.6 kt RCW
RWY 23: 3.6 kt HW 9.3 kt LCW
W.Rank170° ranks 2
Current wind is below 170° avg. (12.1)
Visibility2816 m
Phenomena:Mist
Clouds:Broken 002 Hf
Ceiling200 ft
Temp19°C (ISA +11)
Dew Point19°C (100% RH)
AAT18.6°C
QNH1018 hPa
Density Alt5,105 ft
Elevation3,652 ft
Report Wrong Elevation
Raw Report
KGLD 181043Z AUTO 17010KT 1 3/4SM BR BKN002 19/19 A3007 RMK AO2
T01940194=

Extra information for KGLD:More info

Metar Taf Metar & Taf Last 4 Metars F.Rules Stats Wind Profile Meteogram Temp Stats Airport Information Weather charts Add Link Nearby VenuesMetar ALERT Operation Metar Decoded Social comments

AIRNAV info for KGLD